Air Quality Table

TIMESTAMP NO2 SO2 O3 PM10 PM2.5 TEMP HUM AIRPRES WS WD NO
2022-08-08 17:00 5.48 µg/m3 0.01 µg/m3 107.08 µg/m3 21.23 µg/m3 20.59 µg/m3 30.16 °C 74.91 % 1,004.94 mbar 2.11 m/s 176.69 Deg 1.39 µg/m3
2022-08-08 16:00 2.48 µg/m3 0.01 µg/m3 109.92 µg/m3 22.72 µg/m3 12.6 µg/m3 30.13 °C 73.52 % 1,004.74 mbar 2.97 m/s 174.89 Deg 0.82 µg/m3
2022-08-08 15:00 3.79 µg/m3 0.02 µg/m3 106.82 µg/m3 27.32 µg/m3 7.88 µg/m3 30.45 °C 72.54 % 1,004.85 mbar 2.94 m/s 175.13 Deg 0.95 µg/m3
2022-08-08 14:00 1.84 µg/m3 0.23 µg/m3 101.79 µg/m3 23.02 µg/m3 12.88 µg/m3 30.38 °C 76.03 % 1,005.33 mbar 2.96 m/s 261.11 Deg 0.84 µg/m3
2022-08-08 13:00 4.79 µg/m3 0 µg/m3 111.34 µg/m3 28.22 µg/m3 6.2 µg/m3 30.49 °C 75.49 % 1,005.21 mbar 3.16 m/s 224.72 Deg 0.94 µg/m3
2022-08-08 12:00 5.68 µg/m3 0 µg/m3 100.17 µg/m3 17.54 µg/m3 8.14 µg/m3 30.36 °C 76.57 % 1,005.39 mbar 2.67 m/s 111.3 Deg 1.1 µg/m3
2022-08-08 11:00 6.82 µg/m3 0 µg/m3 93.53 µg/m3 12.44 µg/m3 7.32 µg/m3 30.37 °C 71.84 % 1,005.42 mbar 2.64 m/s 184.68 Deg 1.36 µg/m3
2022-08-08 10:00 7.87 µg/m3 0 µg/m3 83.13 µg/m3 17.24 µg/m3 8.52 µg/m3 30.02 °C 71.87 % 1,005.37 mbar 2.51 m/s 185.65 Deg 1.49 µg/m3
2022-08-08 09:00 8.88 µg/m3 0 µg/m3 74.77 µg/m3 26.14 µg/m3 12.59 µg/m3 29.99 °C 68.19 % 1,005.09 mbar 2.18 m/s 214.73 Deg 1.3 µg/m3
2022-08-08 08:00 13.19 µg/m3 0 µg/m3 54.73 µg/m3 46.06 µg/m3 18.71 µg/m3 28.53 °C 80.74 % 1,004.79 mbar 1.15 m/s 195.33 Deg 2.69 µg/m3
2022-08-08 07:00 18.73 µg/m3 0 µg/m3 30.08 µg/m3 48.07 µg/m3 18.67 µg/m3 26.5 °C 99.2 % 1,004.44 mbar 0.71 m/s 138.75 Deg 4.08 µg/m3
2022-08-08 06:00 30.35 µg/m3 0 µg/m3 20.84 µg/m3 47.31 µg/m3 7.77 µg/m3 26.21 °C 99.9 % 1,004.07 mbar 0.6 m/s 166 Deg 2.55 µg/m3
2022-08-08 05:00 25.61 µg/m3 0 µg/m3 18.94 µg/m3 19.46 µg/m3 10.65 µg/m3 26.26 °C 96.27 % 1,003.68 mbar 0.81 m/s 155.75 Deg 2.92 µg/m3
2022-08-08 04:00 6.84 µg/m3 0 µg/m3 48.86 µg/m3 12.47 µg/m3 9.43 µg/m3 26.46 °C 91.68 % 1,003.39 mbar 0.6 m/s 237.69 Deg 0.86 µg/m3
2022-08-08 03:00 5.79 µg/m3 0 µg/m3 45.22 µg/m3 16 µg/m3 8.81 µg/m3 26.66 °C 91.27 % 1,003.46 mbar 0.63 m/s 214.58 Deg 0.77 µg/m3
2022-08-08 02:00 5.76 µg/m3 0 µg/m3 44.28 µg/m3 23.9 µg/m3 11.32 µg/m3 26.77 °C 93.89 % 1,003.54 mbar 0.87 m/s 276.65 Deg 0.79 µg/m3
2022-08-08 01:00 9.24 µg/m3 0 µg/m3 45.12 µg/m3 36.53 µg/m3 15.25 µg/m3 27.15 °C 92.26 % 1,003.81 mbar 0.69 m/s 313.76 Deg 0.83 µg/m3
2022-08-08 00:00 9.18 µg/m3 0 µg/m3 50.14 µg/m3 52.68 µg/m3 23.06 µg/m3 27.22 °C 92.95 % 1,004.09 mbar 1.28 m/s 318.07 Deg 1.05 µg/m3
2022-08-07 23:00 15.37 µg/m3 0 µg/m3 49.98 µg/m3 47.69 µg/m3 13.24 µg/m3 27.51 °C 89.74 % 1,004.16 mbar 1.51 m/s 307.22 Deg 1.24 µg/m3
2022-08-07 22:00 21.56 µg/m3 0 µg/m3 52.14 µg/m3 35.6 µg/m3 20.03 µg/m3 28.19 °C 79.83 % 1,004.11 mbar 1.48 m/s 312.1 Deg 1.51 µg/m3
2022-08-07 21:00 24.57 µg/m3 0 µg/m3 57.59 µg/m3 41.74 µg/m3 12.83 µg/m3 28.26 °C 81.53 % 1,003.96 mbar 1.69 m/s 347.53 Deg 1.8 µg/m3
2022-08-07 20:00 19.4 µg/m3 0 µg/m3 71.55 µg/m3 34.63 µg/m3 13.91 µg/m3 28.41 °C 78.75 % 1,003.47 mbar 2.37 m/s 347.43 Deg 1.56 µg/m3
2022-08-07 19:00 16.08 µg/m3 0 µg/m3 81.17 µg/m3 22.97 µg/m3 10.37 µg/m3 28.72 °C 77.79 % 1,003.00 mbar 3.19 m/s 184.35 Deg 1.48 µg/m3
2022-08-07 18:00 8.41 µg/m3 0 µg/m3 104 µg/m3 18.38 µg/m3 9.62 µg/m3 29.57 °C 68.94 % 1,002.58 mbar 3.57 m/s 13.98 Deg 1.32 µg/m3
2022-08-07 17:00 6.25 µg/m3 0 µg/m3 107.99 µg/m3 11.13 µg/m3 4.83 µg/m3 31.16 °C 62.42 % 1,002.65 mbar 2.95 m/s 97.15 Deg 1.05 µg/m3
2022-08-07 16:00 2.68 µg/m3 0 µg/m3 111.34 µg/m3 7.32 µg/m3 4.05 µg/m3 31.51 °C 56.83 % 1,002.74 mbar 3.44 m/s 228.2 Deg 0.73 µg/m3
2022-08-07 15:00 2.94 µg/m3 0 µg/m3 110.2 µg/m3 8.03 µg/m3 4.41 µg/m3 30.44 °C 62.95 % 1,003.05 mbar 4.12 m/s 164.4 Deg 0.8 µg/m3
2022-08-07 14:00 5.44 µg/m3 0 µg/m3 107.82 µg/m3 9.36 µg/m3 5.34 µg/m3 30.46 °C 64.98 % 1,003.47 mbar 3 m/s 155.38 Deg 1.08 µg/m3
2022-08-07 13:00 4.57 µg/m3 0 µg/m3 103.27 µg/m3 9.07 µg/m3 4.97 µg/m3 30.8 °C 61.87 % 1,003.85 mbar 2.81 m/s 158.58 Deg 0.97 µg/m3
2022-08-07 12:00 3.22 µg/m3 0 µg/m3 95.5 µg/m3 12.27 µg/m3 5.03 µg/m3 31.09 °C 58.94 % 1,004.18 mbar 2.26 m/s 212.72 Deg 1.13 µg/m3
2022-08-07 11:00 3.73 µg/m3 0 µg/m3 91.98 µg/m3 16.6 µg/m3 7.19 µg/m3 30.91 °C 60.66 % 1,004.46 mbar 2.19 m/s 236.17 Deg 0.86 µg/m3
2022-08-07 10:00 5.94 µg/m3 0 µg/m3 85.36 µg/m3 23.8 µg/m3 9.82 µg/m3 30.19 °C 67.12 % 1,004.59 mbar 2.02 m/s 30.42 Deg 1.16 µg/m3
2022-08-07 09:00 4.47 µg/m3 0 µg/m3 81.77 µg/m3 37.95 µg/m3 14.66 µg/m3 29.08 °C 77.03 % 1,004.25 mbar 2.23 m/s 110.17 Deg 1.09 µg/m3
2022-08-07 08:00 8.33 µg/m3 0 µg/m3 72.39 µg/m3 46.06 µg/m3 24.98 µg/m3 28.16 °C 88.89 % 1,003.98 mbar 2.4 m/s 35.83 Deg 1.92 µg/m3
2022-08-07 07:00 15.64 µg/m3 0 µg/m3 56.86 µg/m3 48.91 µg/m3 8.94 µg/m3 27.41 °C 91.4 % 1,003.64 mbar 1.98 m/s 10.85 Deg 2.47 µg/m3
2022-08-07 06:00 20.49 µg/m3 0 µg/m3 49.1 µg/m3 44.17 µg/m3 10.2 µg/m3 26.61 °C 89.54 % 1,003.29 mbar 1.55 m/s 346.95 Deg 1.81 µg/m3
2022-08-07 05:00 23.37 µg/m3 0 µg/m3 44.35 µg/m3 22.38 µg/m3 5.9 µg/m3 26.59 °C 86.19 % 1,003.16 mbar 1.26 m/s 274.62 Deg 1.29 µg/m3
2022-08-07 04:00 14.82 µg/m3 0 µg/m3 56.01 µg/m3 19.47 µg/m3 7.32 µg/m3 27.04 °C 82.23 % 1,003.21 mbar 0.63 m/s 313.85 Deg 0.95 µg/m3
2022-08-07 03:00 7.7 µg/m3 0 µg/m3 65.46 µg/m3 16.21 µg/m3 6.49 µg/m3 27.1 °C 84.86 % 1,003.36 mbar 1.08 m/s 338.47 Deg 0.78 µg/m3
2022-08-07 02:00 5.73 µg/m3 0 µg/m3 63.25 µg/m3 15.34 µg/m3 8.75 µg/m3 27.14 °C 85.59 % 1,003.71 mbar 2.07 m/s 291.5 Deg 1 µg/m3
2022-08-07 01:00 4.54 µg/m3 0 µg/m3 63.23 µg/m3 18.57 µg/m3 13.56 µg/m3 27.3 °C 85.95 % 1,004.34 mbar 2.09 m/s 290.08 Deg 0.83 µg/m3
2022-08-07 00:00 8.32 µg/m3 0 µg/m3 56.81 µg/m3 26.39 µg/m3 15.42 µg/m3 27.38 °C 85.18 % 1,004.91 mbar 1.73 m/s 295.25 Deg 1.01 µg/m3
2022-08-06 23:00 8.47 µg/m3 0 µg/m3 53.8 µg/m3 45.07 µg/m3 14.09 µg/m3 27.7 °C 84.45 % 1,005.14 mbar 2.25 m/s 302.98 Deg 1.18 µg/m3
2022-08-06 22:00 7.43 µg/m3 0 µg/m3 56.33 µg/m3 53.01 µg/m3 20.35 µg/m3 27.98 °C 84.44 % 1,005.26 mbar 1.96 m/s 303.63 Deg 1.24 µg/m3
2022-08-06 21:00 9.43 µg/m3 0 µg/m3 56.59 µg/m3 53.44 µg/m3 13.17 µg/m3 28.34 °C 81.82 % 1,005.21 mbar 2.31 m/s 308.75 Deg 1.68 µg/m3
2022-08-06 20:00 10.21 µg/m3 0 µg/m3 59.86 µg/m3 50.8 µg/m3 9.16 µg/m3 28.83 °C 77 % 1,004.84 mbar 2.85 m/s 315.82 Deg 2.02 µg/m3
2022-08-06 19:00 10.58 µg/m3 0 µg/m3 66.08 µg/m3 24.3 µg/m3 6.19 µg/m3 30.09 °C 63.83 % 1,004.47 mbar 2.8 m/s 317.52 Deg 2 µg/m3

It is to be noted that the data is provisional and subject to quality assurance procedures. For validated data kindly refer your request to contact.air@era.org.mt